createdAt,value
2018-04-19T00:01:18.383Z,102193.86
2018-04-19T00:03:46.667Z,102194.69
2018-04-19T00:06:14.936Z,102199.08
2018-04-19T00:08:43.218Z,102199.05
2018-04-19T00:11:11.495Z,102192.11
2018-04-19T00:13:39.778Z,102197.33
2018-04-19T00:16:08.060Z,102185.95
2018-04-19T00:18:36.351Z,102189.89
2018-04-19T00:21:04.626Z,102190.36
2018-04-19T00:23:32.910Z,102186.44
2018-04-19T00:26:01.191Z,102191.25
2018-04-19T00:28:29.458Z,102186.42
2018-04-19T00:30:57.735Z,102178.53
2018-04-19T00:33:26.013Z,102182.87
2018-04-19T00:35:54.305Z,102177.66
2018-04-19T00:38:22.624Z,102179.41
2018-04-19T00:40:51.104Z,102168.90
2018-04-19T00:43:19.375Z,102172.84
2018-04-19T00:45:47.657Z,102175.91
2018-04-19T00:48:15.954Z,102177.66
2018-04-19T00:50:44.230Z,102175.48
2018-04-19T00:53:12.510Z,102166.30
2018-04-19T00:55:40.782Z,102170.64
2018-04-19T00:58:09.058Z,102174.12
2018-04-19T01:00:37.328Z,102168.45
2018-04-19T01:03:05.614Z,102165.44
2018-04-19T01:05:33.887Z,102162.34
2018-04-19T01:08:02.167Z,102168.22
2018-04-19T01:10:30.458Z,102169.23
2018-04-19T01:12:58.738Z,102165.33
2018-04-19T01:15:27.026Z,102159.68
2018-04-19T01:17:55.294Z,102160.13
2018-04-19T01:20:23.590Z,102157.06
2018-04-19T01:22:51.859Z,102150.50
2018-04-19T01:25:20.186Z,102147.36
2018-04-19T01:27:48.450Z,102143.87
2018-04-19T01:30:16.736Z,102143.48
2018-04-19T01:32:45.018Z,102142.60
2018-04-19T01:35:13.303Z,102144.80
2018-04-19T01:37:41.577Z,102143.02
2018-04-19T01:40:09.858Z,102144.26
2018-04-19T01:42:38.138Z,102139.55
2018-04-19T01:45:06.414Z,102142.63
2018-04-19T01:47:34.690Z,102136.39
2018-04-19T01:50:03.007Z,102144.66
2018-04-19T01:52:31.281Z,102146.92
2018-04-19T01:54:59.573Z,102144.22
2018-04-19T01:57:27.847Z,102148.58
2018-04-19T01:59:56.126Z,102145.91
2018-04-19T02:02:24.398Z,102142.43
2018-04-19T02:04:52.682Z,102146.20
2018-04-19T02:07:20.988Z,102154.52
2018-04-19T02:09:49.271Z,102145.02
2018-04-19T02:12:19.508Z,102148.46
2018-04-19T02:14:47.774Z,102149.75
2018-04-19T02:17:16.064Z,102151.82
2018-04-19T02:19:44.346Z,102145.83
2018-04-19T02:22:12.630Z,102151.36
2018-04-19T02:24:40.898Z,102150.91
2018-04-19T02:27:09.210Z,102158.78
2018-04-19T02:29:37.490Z,102151.95
2018-04-19T02:32:05.779Z,102148.80
2018-04-19T02:34:34.062Z,102147.81
2018-04-19T02:37:02.342Z,102148.11
2018-04-19T02:39:30.632Z,102145.53
2018-04-19T02:41:58.902Z,102142.05
2018-04-19T02:44:27.219Z,102136.42
2018-04-19T02:46:55.482Z,102131.28
2018-04-19T02:49:23.792Z,102128.58
2018-04-19T02:51:52.060Z,102138.30
2018-04-19T02:54:20.343Z,102137.32
2018-04-19T02:56:48.626Z,102138.52
2018-04-19T02:59:16.918Z,102141.16
2018-04-19T03:01:45.207Z,102135.00
2018-04-19T03:04:13.486Z,102134.13
2018-04-19T03:06:41.774Z,102133.73
2018-04-19T03:09:10.054Z,102132.33
2018-04-19T03:11:38.343Z,102137.17
2018-04-19T03:14:06.625Z,102131.48
2018-04-19T03:16:34.896Z,102132.78
2018-04-19T03:19:03.206Z,102123.25
2018-04-19T03:21:31.497Z,102129.16
2018-04-19T03:23:59.789Z,102126.20
2018-04-19T03:29:25.138Z,102120.86
2018-04-19T03:31:53.763Z,102122.06
2018-04-19T03:34:22.050Z,102116.45
2018-04-19T03:36:50.347Z,102116.05
2018-04-19T03:39:18.627Z,102114.43
2018-04-19T03:41:47.179Z,102115.80
2018-04-19T03:44:15.454Z,102117.09
2018-04-19T03:46:43.729Z,102119.23
2018-04-19T03:49:12.018Z,102114.09
2018-04-19T03:51:40.533Z,102110.55
2018-04-19T03:54:08.826Z,102110.19
2018-04-19T03:56:37.102Z,102105.41
2018-04-19T03:59:05.382Z,102113.27
2018-04-19T04:01:33.663Z,102110.41
2018-04-19T04:04:01.939Z,102112.56
2018-04-19T04:06:30.239Z,102115.21
2018-04-19T04:08:58.535Z,102105.70
2018-04-19T04:11:26.819Z,102104.39
2018-04-19T04:13:55.117Z,102099.67
2018-04-19T04:16:35.212Z,102103.09
2018-04-19T04:19:15.325Z,102100.86
2018-04-19T04:21:55.279Z,102105.02
2018-04-19T04:24:23.557Z,102108.17
2018-04-19T04:26:51.834Z,102104.25
2018-04-19T04:29:20.138Z,102107.28
2018-04-19T04:31:48.416Z,102104.23
2018-04-19T04:34:16.693Z,102106.02
2018-04-19T04:36:44.987Z,102107.23
2018-04-19T04:39:13.266Z,102099.89
2018-04-19T04:41:41.566Z,102102.08
2018-04-19T04:44:09.851Z,102100.28
2018-04-19T04:46:38.123Z,102102.48
2018-04-19T04:49:06.424Z,102104.73
2018-04-19T04:51:34.707Z,102105.50
2018-04-19T04:54:03.971Z,102107.59
2018-04-19T04:56:32.243Z,102105.48
2018-04-19T04:59:00.525Z,102105.59
2018-04-19T05:01:28.827Z,102105.58
2018-04-19T05:03:57.108Z,102103.85
2018-04-19T05:06:25.500Z,102102.65
2018-04-19T05:08:53.950Z,102103.81
2018-04-19T05:11:22.234Z,102106.05
2018-04-19T05:13:50.522Z,102105.27
2018-04-19T05:16:19.755Z,102104.87
2018-04-19T05:18:48.301Z,102105.44
2018-04-19T05:21:16.578Z,102100.66
2018-04-19T05:23:44.861Z,102098.38
2018-04-19T05:26:13.177Z,102099.73
2018-04-19T05:28:41.449Z,102104.11
2018-04-19T05:31:13.812Z,102104.59
2018-04-19T05:33:42.115Z,102103.38
2018-04-19T05:36:10.397Z,102106.34
2018-04-19T05:38:38.693Z,102113.34
2018-04-19T05:41:08.900Z,102121.24
2018-04-19T05:43:37.452Z,102116.44
2018-04-19T05:46:05.870Z,102115.14
2018-04-19T05:48:34.174Z,102121.73
2018-04-19T05:51:02.535Z,102119.55
2018-04-19T05:53:30.812Z,102117.45
2018-04-19T05:55:59.369Z,102117.87
2018-04-19T05:58:27.670Z,102121.84
2018-04-19T06:00:56.955Z,102119.72
2018-04-19T06:03:25.250Z,102118.00
2018-04-19T06:05:54.546Z,102120.66
2018-04-19T06:08:22.850Z,102121.66
2018-04-19T06:10:51.137Z,102121.52
2018-04-19T06:13:19.420Z,102122.00
2018-04-19T06:15:47.717Z,102118.16
2018-04-19T06:18:16.003Z,102120.36
2018-04-19T06:20:44.312Z,102121.26
2018-04-19T06:23:13.438Z,102123.88
2018-04-19T06:25:41.733Z,102123.91
2018-04-19T06:28:10.022Z,102122.61
2018-04-19T06:30:38.301Z,102123.49
2018-04-19T06:33:06.898Z,102118.70
2018-04-19T06:35:35.186Z,102126.11
2018-04-19T06:38:03.498Z,102121.31
2018-04-19T06:40:31.807Z,102123.50
2018-04-19T06:43:01.030Z,102121.72
2018-04-19T06:45:29.330Z,102115.99
2018-04-19T06:47:57.610Z,102123.36
2018-04-19T06:50:25.911Z,102123.27
2018-04-19T06:52:54.201Z,102125.33
2018-04-19T06:55:22.466Z,102122.20
2018-04-19T06:57:50.766Z,102129.34
2018-04-19T07:00:19.042Z,102125.87
2018-04-19T07:02:47.322Z,102122.58
2018-04-19T07:05:15.614Z,102129.36
2018-04-19T07:07:43.890Z,102120.81
2018-04-19T07:10:12.186Z,102123.08
2018-04-19T07:12:40.470Z,102122.91
2018-04-19T07:15:08.759Z,102123.02
2018-04-19T07:17:37.046Z,102116.62
2018-04-19T07:20:05.322Z,102114.97
2018-04-19T07:22:33.631Z,102120.64
2018-04-19T07:25:01.927Z,102116.57
2018-04-19T07:27:30.209Z,102112.77
2018-04-19T07:29:58.498Z,102113.86
2018-04-19T07:32:26.776Z,102109.91
2018-04-19T07:34:55.086Z,102103.09
2018-04-19T07:37:23.363Z,102104.91
2018-04-19T07:39:51.642Z,102101.29
2018-04-19T07:42:19.940Z,102107.00
2018-04-19T07:44:48.214Z,102103.70
2018-04-19T07:47:16.506Z,102102.06
2018-04-19T07:49:44.791Z,102099.80
2018-04-19T07:52:13.070Z,102102.64
2018-04-19T07:54:41.365Z,102107.11
2018-04-19T07:57:09.648Z,102099.22
2018-04-19T07:59:37.943Z,102095.49
2018-04-19T08:02:06.219Z,102104.36
2018-04-19T08:04:34.550Z,102104.70
2018-04-19T08:07:02.841Z,102099.80
2018-04-19T08:09:31.115Z,102106.98
2018-04-19T08:11:59.677Z,102106.36
2018-04-19T08:14:27.953Z,102105.45
2018-04-19T08:16:56.234Z,102093.91
2018-04-19T08:19:24.514Z,102099.53
2018-04-19T08:21:52.796Z,102095.93
2018-04-19T08:24:21.909Z,102096.64
2018-04-19T08:26:50.207Z,102090.69
2018-04-19T08:29:18.474Z,102098.83
2018-04-19T08:31:46.766Z,102086.40
2018-04-19T08:34:15.074Z,102098.86
2018-04-19T08:36:43.366Z,102094.67
2018-04-19T08:39:11.656Z,102102.27
2018-04-19T08:41:39.956Z,102088.42
2018-04-19T08:44:08.239Z,102088.20
2018-04-19T08:46:36.513Z,102091.42
2018-04-19T08:49:04.800Z,102093.98
2018-04-19T08:51:33.128Z,102096.86
2018-04-19T08:54:01.387Z,102091.33
2018-04-19T08:56:29.673Z,102091.64
2018-04-19T08:58:57.945Z,102090.98
2018-04-19T09:01:26.236Z,102085.62
2018-04-19T09:03:54.505Z,102084.94
2018-04-19T09:06:22.793Z,102078.75
2018-04-19T09:08:51.083Z,102082.20
2018-04-19T09:11:19.354Z,102072.94
2018-04-19T09:13:47.637Z,102068.98
2018-04-19T09:16:15.911Z,102077.05
2018-04-19T09:18:44.211Z,102085.66
2018-04-19T09:21:12.494Z,102078.09
2018-04-19T09:23:40.770Z,102082.95
2018-04-19T09:26:09.047Z,102067.52
2018-04-19T09:28:37.318Z,102070.64
2018-04-19T09:31:05.942Z,102066.95
2018-04-19T09:33:34.227Z,102076.36
2018-04-19T09:36:02.492Z,102072.05
2018-04-19T09:38:30.778Z,102068.13
2018-04-19T09:40:59.082Z,102072.28
2018-04-19T09:43:27.353Z,102069.22
2018-04-19T09:45:55.638Z,102063.47
2018-04-19T09:48:23.916Z,102069.56
2018-04-19T09:50:52.210Z,102066.25
2018-04-19T09:53:20.486Z,102064.14
2018-04-19T09:55:48.766Z,102068.50
2018-04-19T09:58:17.053Z,102064.23
2018-04-19T10:00:45.322Z,102064.22
2018-04-19T10:03:18.511Z,102052.33
2018-04-19T10:05:47.707Z,102057.05
2018-04-19T10:08:15.979Z,102060.58
2018-04-19T10:10:44.262Z,102057.09
2018-04-19T10:13:12.542Z,102050.73
2018-04-19T10:15:40.814Z,102046.00
2018-04-19T10:18:09.094Z,102043.88
2018-04-19T10:20:37.379Z,102049.70
2018-04-19T10:23:05.660Z,102041.44
2018-04-19T10:25:33.942Z,102042.14
2018-04-19T10:28:02.402Z,102037.55
2018-04-19T10:33:28.539Z,102033.27
2018-04-19T10:35:56.821Z,102030.98
2018-04-19T10:38:25.115Z,102027.70
2018-04-19T10:40:53.397Z,102017.66
2018-04-19T10:43:21.683Z,102020.86
2018-04-19T10:45:49.960Z,102009.48
2018-04-19T10:48:18.250Z,102008.59
2018-04-19T10:50:46.518Z,102009.87
2018-04-19T10:53:14.799Z,102005.12
2018-04-19T10:55:43.078Z,102001.00
2018-04-19T10:58:11.357Z,102000.73
2018-04-19T11:00:39.652Z,102002.75
2018-04-19T11:03:07.922Z,101993.97
2018-04-19T11:05:36.228Z,101996.67
2018-04-19T11:08:04.549Z,101990.25
2018-04-19T11:10:32.839Z,101985.19
2018-04-19T11:13:02.725Z,101981.75
2018-04-19T11:15:31.106Z,101983.29
2018-04-19T11:17:59.391Z,101978.11
2018-04-19T11:20:27.676Z,101980.97
2018-04-19T11:22:55.959Z,101980.05
2018-04-19T11:25:24.242Z,101977.54
2018-04-19T11:27:52.526Z,101975.50
2018-04-19T11:30:20.806Z,101964.88
2018-04-19T11:32:50.068Z,101966.82
2018-04-19T11:35:18.343Z,101966.27
2018-04-19T11:37:46.638Z,101963.43
2018-04-19T11:40:14.918Z,101959.80
2018-04-19T11:42:44.126Z,101964.02
2018-04-19T11:45:13.361Z,101955.87
2018-04-19T11:47:41.634Z,101956.02
2018-04-19T11:50:09.947Z,101951.19
2018-04-19T11:52:40.155Z,101951.75
2018-04-19T11:55:08.451Z,101956.91
2018-04-19T11:57:36.726Z,101954.16
2018-04-19T12:00:06.363Z,101951.48
2018-04-19T12:02:34.653Z,101946.20
2018-04-19T12:05:02.942Z,101948.30
2018-04-19T12:07:31.246Z,101943.81
2018-04-19T12:09:59.515Z,101944.20
2018-04-19T12:12:27.801Z,101939.55
2018-04-19T12:14:56.218Z,101941.83
2018-04-19T12:17:24.495Z,101940.56
2018-04-19T12:19:52.781Z,101936.33
2018-04-19T12:22:21.101Z,101939.41
2018-04-19T12:24:49.393Z,101930.87
2018-04-19T12:27:17.664Z,101938.75
2018-04-19T12:29:45.938Z,101928.79
2018-04-19T12:32:14.223Z,101939.44
2018-04-19T12:34:42.531Z,101931.81
2018-04-19T12:37:10.810Z,101932.33
2018-04-19T12:39:39.087Z,101928.30
2018-04-19T12:42:07.375Z,101922.27
2018-04-19T12:44:35.659Z,101922.80
2018-04-19T12:47:03.942Z,101918.18
2018-04-19T12:49:32.210Z,101909.32
2018-04-19T12:52:00.490Z,101915.31
2018-04-19T12:54:28.776Z,101912.01
2018-04-19T12:56:57.052Z,101905.77
2018-04-19T12:59:25.342Z,101907.50
2018-04-19T13:01:53.954Z,101904.80
2018-04-19T13:04:22.234Z,101895.65
2018-04-19T13:06:50.509Z,101904.64
2018-04-19T13:09:18.855Z,101896.73
2018-04-19T13:11:47.134Z,101892.98
2018-04-19T13:14:15.414Z,101891.11
2018-04-19T13:16:43.710Z,101890.30
2018-04-19T13:19:11.991Z,101879.62
2018-04-19T13:21:40.287Z,101868.33
2018-04-19T13:24:08.567Z,101873.07
2018-04-19T13:26:37.114Z,101872.53
2018-04-19T13:29:05.407Z,101870.00
2018-04-19T13:31:33.679Z,101856.00
2018-04-19T13:34:02.594Z,101865.06
2018-04-19T13:36:30.864Z,101861.70
2018-04-19T13:38:59.150Z,101866.94
2018-04-19T13:41:27.438Z,101856.75
2018-04-19T13:43:55.715Z,101854.11
2018-04-19T13:46:23.992Z,101846.84
2018-04-19T13:48:52.270Z,101842.05
2018-04-19T13:51:20.550Z,101836.09
2018-04-19T13:53:48.830Z,101834.38
2018-04-19T13:56:18.086Z,101831.60
2018-04-19T13:58:46.615Z,101832.77
2018-04-19T14:01:14.891Z,101830.92
2018-04-19T14:03:43.158Z,101830.71
2018-04-19T14:06:11.447Z,101828.12
2018-04-19T14:08:39.724Z,101819.82
2018-04-19T14:11:08.003Z,101817.08
2018-04-19T14:13:36.291Z,101816.14
2018-04-19T14:16:05.635Z,101808.95
2018-04-19T14:18:33.934Z,101805.47
2018-04-19T14:21:03.150Z,101805.09
2018-04-19T14:23:31.438Z,101805.19
2018-04-19T14:25:59.739Z,101805.20
2018-04-19T14:28:27.984Z,101796.75
2018-04-19T14:30:56.258Z,101795.27
2018-04-19T14:33:25.498Z,101796.44
2018-04-19T14:35:54.718Z,101795.09
2018-04-19T14:38:23.034Z,101793.88
2018-04-19T14:40:51.294Z,101782.11
2018-04-19T14:43:20.502Z,101788.51
2018-04-19T14:45:48.792Z,101780.55
2018-04-19T14:48:17.084Z,101779.69
2018-04-19T14:50:45.393Z,101788.55
2018-04-19T14:53:13.683Z,101780.70
2018-04-19T14:55:41.966Z,101776.01
2018-04-19T14:58:10.250Z,101782.59
2018-04-19T15:00:38.561Z,101772.12
2018-04-19T15:03:06.828Z,101774.50
2018-04-19T15:05:35.110Z,101766.35
2018-04-19T15:08:03.394Z,101765.95
2018-04-19T15:10:31.664Z,101771.80
2018-04-19T15:12:59.949Z,101765.58
2018-04-19T15:15:28.214Z,101760.91
2018-04-19T15:17:56.494Z,101757.27
2018-04-19T15:20:24.777Z,101757.47
2018-04-19T15:22:53.058Z,101763.19
2018-04-19T15:25:21.358Z,101758.22
2018-04-19T15:27:49.658Z,101755.47
2018-04-19T15:30:17.913Z,101754.95
2018-04-19T15:32:46.212Z,101756.46
2018-04-19T15:35:14.491Z,101754.48
2018-04-19T15:37:42.771Z,101757.43
2018-04-19T15:40:11.058Z,101760.80
2018-04-19T15:42:39.342Z,101754.27
2018-04-19T15:45:07.626Z,101747.81
2018-04-19T15:47:35.908Z,101755.32
2018-04-19T15:50:04.216Z,101743.00
2018-04-19T15:52:32.479Z,101738.59
2018-04-19T15:55:00.839Z,101743.08
2018-04-19T15:57:29.065Z,101741.27
2018-04-19T15:59:57.353Z,101744.97
2018-04-19T16:02:25.633Z,101739.53
2018-04-19T16:04:53.930Z,101738.55
2018-04-19T16:07:22.189Z,101738.03
2018-04-19T16:09:50.474Z,101737.06
2018-04-19T16:12:18.746Z,101726.50
2018-04-19T16:14:47.058Z,101730.83
2018-04-19T16:17:15.330Z,101730.80
2018-04-19T16:19:43.610Z,101730.72
2018-04-19T16:22:11.901Z,101730.37
2018-04-19T16:24:40.175Z,101721.78
2018-04-19T16:27:08.454Z,101722.81
2018-04-19T16:29:36.726Z,101721.58
2018-04-19T16:32:05.010Z,101716.45
2018-04-19T16:34:34.582Z,101713.55
2018-04-19T16:37:02.857Z,101714.61
2018-04-19T16:39:31.206Z,101711.50
2018-04-19T16:41:59.522Z,101710.81
2018-04-19T16:44:27.756Z,101710.19
2018-04-19T16:46:56.034Z,101713.20
2018-04-19T16:49:24.310Z,101710.88
2018-04-19T16:51:52.606Z,101714.98
2018-04-19T16:54:22.466Z,101718.19
2018-04-19T16:56:52.712Z,101715.52
2018-04-19T16:59:21.007Z,101716.84
2018-04-19T17:01:49.298Z,101715.36
2018-04-19T17:04:17.554Z,101709.00
2018-04-19T17:06:45.849Z,101711.11
2018-04-19T17:09:14.126Z,101712.69
2018-04-19T17:11:42.395Z,101707.66
2018-04-19T17:14:10.683Z,101703.36
2018-04-19T17:16:39.590Z,101707.94
2018-04-19T17:19:07.882Z,101709.73
2018-04-19T17:21:36.159Z,101703.11
2018-04-19T17:24:04.450Z,101702.53
2018-04-19T17:26:32.726Z,101701.81
2018-04-19T17:29:01.016Z,101702.82
2018-04-19T17:31:29.287Z,101702.08
2018-04-19T17:33:57.576Z,101700.48
2018-04-19T17:36:25.854Z,101705.30
2018-04-19T17:38:54.138Z,101699.30
2018-04-19T17:41:22.407Z,101705.06
2018-04-19T17:43:50.693Z,101703.58
2018-04-19T17:46:18.971Z,101708.36
2018-04-19T17:48:47.254Z,101708.55
2018-04-19T17:51:15.517Z,101706.23
2018-04-19T17:53:43.812Z,101708.47
2018-04-19T17:56:12.070Z,101715.86
2018-04-19T17:58:40.348Z,101715.55
2018-04-19T18:01:08.631Z,101712.81
2018-04-19T18:03:36.902Z,101717.68
2018-04-19T18:06:06.125Z,101714.73
2018-04-19T18:08:34.401Z,101714.64
2018-04-19T18:11:02.677Z,101723.36
2018-04-19T18:13:30.950Z,101724.89
2018-04-19T18:15:59.235Z,101727.91
2018-04-19T18:18:27.502Z,101734.30
2018-04-19T18:20:55.788Z,101732.66
2018-04-19T18:23:24.055Z,101734.03
2018-04-19T18:25:52.346Z,101732.36
2018-04-19T18:28:20.646Z,101736.33
2018-04-19T18:30:48.939Z,101736.14
2018-04-19T18:33:17.195Z,101734.48
2018-04-19T18:35:45.482Z,101735.72
2018-04-19T18:38:13.755Z,101744.48
2018-04-19T18:40:42.030Z,101739.39
2018-04-19T18:43:10.329Z,101750.62
2018-04-19T18:45:38.594Z,101747.95
2018-04-19T18:48:06.884Z,101750.90
2018-04-19T18:50:35.169Z,101753.70
2018-04-19T18:53:03.452Z,101754.97
2018-04-19T18:55:33.659Z,101755.45
2018-04-19T18:58:01.966Z,101755.00
2018-04-19T19:00:30.258Z,101756.30
2018-04-19T19:02:58.552Z,101760.77
2018-04-19T19:05:26.838Z,101752.08
2018-04-19T19:07:55.126Z,101766.38
2018-04-19T19:10:23.409Z,101765.33
2018-04-19T19:12:51.683Z,101767.16
2018-04-19T19:18:49.451Z,101761.10
2018-04-19T19:21:17.718Z,101770.22
2018-04-19T19:23:46.011Z,101775.64
2018-04-19T19:26:14.300Z,101775.33
2018-04-19T19:28:42.579Z,101774.94
2018-04-19T19:31:10.858Z,101773.56
2018-04-19T19:33:39.142Z,101788.61
2018-04-19T19:36:07.423Z,101788.09
2018-04-19T19:38:35.731Z,101792.04
2018-04-19T19:41:03.998Z,101786.77
2018-04-19T19:43:32.290Z,101790.95
2018-04-19T19:46:00.609Z,101796.70
2018-04-19T19:48:28.895Z,101795.25
2018-04-19T19:50:57.189Z,101786.92
2018-04-19T19:53:26.057Z,101790.55
2018-04-19T19:55:54.382Z,101790.28
2018-04-19T19:58:22.659Z,101787.19
2018-04-19T20:00:50.958Z,101790.56
2018-04-19T20:03:20.247Z,101792.49
2018-04-19T20:05:48.528Z,101784.55
2018-04-19T20:08:16.812Z,101787.50
2018-04-19T20:10:45.115Z,101783.52
2018-04-19T20:13:14.327Z,101786.52
2018-04-19T20:15:42.668Z,101790.06
2018-04-19T20:18:13.578Z,101793.50
2018-04-19T20:20:43.786Z,101783.72
2018-04-19T20:23:12.103Z,101791.33
2018-04-19T20:25:40.407Z,101788.48
2018-04-19T20:28:08.897Z,101789.52
2018-04-19T20:30:37.360Z,101787.97
2018-04-19T20:33:05.647Z,101788.27
2018-04-19T20:35:33.963Z,101790.72
2018-04-19T20:38:02.198Z,101791.88
2018-04-19T20:40:30.491Z,101783.77
2018-04-19T20:42:58.778Z,101789.00
2018-04-19T20:45:28.065Z,101791.77
2018-04-19T20:47:56.358Z,101790.05
2018-04-19T20:50:24.639Z,101797.04
2018-04-19T20:52:52.923Z,101793.57
2018-04-19T20:55:21.199Z,101797.92
2018-04-19T20:57:49.503Z,101802.90
2018-04-19T21:00:18.919Z,101794.81
2018-04-19T21:02:47.540Z,101797.30
2018-04-19T21:05:15.859Z,101793.23
2018-04-19T21:07:45.146Z,101794.31
2018-04-19T21:10:13.391Z,101793.66
2018-04-19T21:12:41.665Z,101795.98
2018-04-19T21:15:09.988Z,101796.52
2018-04-19T21:17:38.276Z,101798.77
2018-04-19T21:20:06.562Z,101793.71
2018-04-19T21:22:34.846Z,101796.93
2018-04-19T21:25:03.151Z,101792.38
2018-04-19T21:27:31.411Z,101786.75
2018-04-19T21:29:59.696Z,101790.50
2018-04-19T21:32:28.281Z,101787.07
2018-04-19T21:34:57.411Z,101786.27
2018-04-19T21:37:25.689Z,101787.64
2018-04-19T21:39:53.974Z,101779.47
2018-04-19T21:42:22.246Z,101781.60
2018-04-19T21:44:50.534Z,101780.79
2018-04-19T21:47:18.814Z,101783.69
2018-04-19T21:49:47.114Z,101788.83
2018-04-19T21:52:15.390Z,101783.04
2018-04-19T21:54:43.934Z,101785.50
2018-04-19T21:57:12.210Z,101781.09
2018-04-19T21:59:40.482Z,101788.83
2018-04-19T22:02:08.798Z,101789.75
2018-04-19T22:04:37.078Z,101790.09
2018-04-19T22:07:05.397Z,101789.05
2018-04-19T22:09:33.658Z,101784.97
2018-04-19T22:12:01.941Z,101781.69
2018-04-19T22:14:30.222Z,101786.75
2018-04-19T22:16:58.522Z,101789.45
2018-04-19T22:19:26.807Z,101788.73
2018-04-19T22:21:55.093Z,101787.53
2018-04-19T22:24:23.410Z,101789.28
2018-04-19T22:26:51.701Z,101784.09
2018-04-19T22:29:19.969Z,101792.97
2018-04-19T22:31:48.254Z,101786.41
2018-04-19T22:34:16.524Z,101784.34
2018-04-19T22:36:44.805Z,101785.33
2018-04-19T22:39:13.081Z,101783.77
2018-04-19T22:41:41.643Z,101787.69
2018-04-19T22:44:09.917Z,101791.95
2018-04-19T22:46:38.218Z,101790.09
2018-04-19T22:49:06.514Z,101781.34
2018-04-19T22:51:34.794Z,101782.59
2018-04-19T22:54:03.082Z,101778.59
2018-04-19T22:56:31.359Z,101782.31
2018-04-19T22:58:59.646Z,101778.95
2018-04-19T23:01:27.933Z,101780.22
2018-04-19T23:03:56.222Z,101781.16
2018-04-19T23:06:24.502Z,101777.47
2018-04-19T23:08:52.786Z,101775.13
2018-04-19T23:11:21.062Z,101772.89
2018-04-19T23:13:49.346Z,101776.25
2018-04-19T23:16:17.625Z,101776.77
2018-04-19T23:18:45.913Z,101774.20
2018-04-19T23:21:14.189Z,101770.47
2018-04-19T23:23:42.491Z,101772.22
2018-04-19T23:26:10.765Z,101771.61
2018-04-19T23:28:39.038Z,101768.11
2018-04-19T23:31:07.326Z,101768.50
2018-04-19T23:33:35.618Z,101763.46
2018-04-19T23:36:03.890Z,101759.78
2018-04-19T23:38:32.199Z,101769.42
2018-04-19T23:41:00.450Z,101765.22
2018-04-19T23:43:28.747Z,101764.47
2018-04-19T23:45:57.037Z,101772.51
2018-04-19T23:48:25.313Z,101762.28
2018-04-19T23:50:53.631Z,101763.59
2018-04-19T23:53:21.906Z,101763.59
2018-04-19T23:55:50.199Z,101760.33
2018-04-19T23:58:18.478Z,101763.72
